Winn, MI

11:06 PM EST on Febreiro 21, 2017 (GMT -0500)
Winn Michigan | | Change Station
Active Advisory: Dense Fog Advisory

Elev 920 ft 43.52 °N, 84.89 °W | Updated 7 minutes ago

Brétema
Brétema
42.6 °F
Feels Like 43 °F
N
0.0
Vento Variable Vento from SSO

Hoxe
High -- | Low -- °F
--% Chance of Precip.
Yesterday
High -- | Low -- °F
Precip. -- pol
Presión 29.89 pol
Visibilidade 0.8 Millas
Nubes
Vento Xeado 43 °F
Nivel de Rosada 42 °F
Humidade 99%
Rainfall 0.04 pol
Fondo da neve Not available.
7:28 AM 6:18 PM
Waning Crescent, 20% visible
METAR KMOP 220354Z AUTO 00000KT 3/4SM BR VV005 03/03 A2989 RMK AO2 T00310028
Presión 29.89 pol
Visibilidade 0.8 Millas
Nubes
Vento Xeado 43 °F
Nivel de Rosada 42 °F
Humidade 99%
Rainfall 0.04 pol
Fondo da neve Not available.
7:28 AM 6:18 PM
Waning Crescent, 20% visible
METAR KMOP 220354Z AUTO 00000KT 3/4SM BR VV005 03/03 A2989 RMK AO2 T00310028

Get Your Daily Forecast Email!

Thanks for signing up!

Be on the lookout for a verification email in your inbox.

You'll start receiving the daily forecast at 8 AM.

×

10-Day Weather Forecast

Almanac

Astronomía

Feb. 21, 2017 Rise Set
Tempo actual
Crepúsculo civil
Crepúsculo náutico
Crepúsculo astronómico
Lúa
Lonxitude da luz visíbel
Length of Day
Tomorrow will be .
, % of the Moon is Illuminated

Today's Extremes

State Highs State Lows

Community

WunderPhotos

Upload Photos

1,962,540 photos uploaded!

WunderBlog® & News

Nearby

Air Quality

  Air Quality AQ Index Pollutant
Not available.

Snow Depth

Station Depth Elevation

Earthquake Activity

Cidade Distance Mag. Time & Date
Minimum magnitude displayed is 2.5.

Coastal Water Temperatures

Lugar Temperatura

Stations

Nearby Weather Stations

Station Location Temp Vento Xeado Nivel de Rosada Humidade Vento Precip. Elev Actualización Type
                   

Watches & Warnings

Dense Fog Advisory
Issued: 8:36 PM EST Feb. 21, 2017 – National Weather Service

... Dense fog advisory in effect until 9 am EST Wednesday...

The National Weather Service in Grand Rapids has issued a dense
fog advisory... which is in effect until 9 am EST Wednesday.

Hazardous weather...

* dense fog will become widespread across the area north of
   Interstate 94 prior to midnight.

* Visibilities will be less than a quarter mile.

Impacts...

* expect slower travel on area roads due to very low
   visibilities.



Precautionary/preparedness actions...

* if driving... slow down... use low beam headlights... and leave
plenty of distance ahead of you.



Wdm